sensor_id;sensor_type;location;lat;lon;timestamp;pressure;altitude;pressure_sealevel;temperature;humidity
31483;BME280;18103;52.246;8.052;2022-12-16T00:02:11;99880.34;;;-4.19;80.08
31483;BME280;18103;52.246;8.052;2022-12-16T00:04:37;99877.09;;;-4.26;80.54
31483;BME280;18103;52.246;8.052;2022-12-16T00:07:02;99877.03;;;-4.24;80.60
31483;BME280;18103;52.246;8.052;2022-12-16T00:09:28;99881.31;;;-4.23;79.88
31483;BME280;18103;52.246;8.052;2022-12-16T00:11:54;99878.00;;;-4.28;80.21
31483;BME280;18103;52.246;8.052;2022-12-16T00:14:19;99872.19;;;-4.37;80.41
31483;BME280;18103;52.246;8.052;2022-12-16T00:16:45;99874.88;;;-4.41;80.49
31483;BME280;18103;52.246;8.052;2022-12-16T00:19:11;99881.00;;;-4.45;80.65
31483;BME280;18103;52.246;8.052;2022-12-16T00:21:36;99876.63;;;-4.42;80.26
31483;BME280;18103;52.246;8.052;2022-12-16T00:24:02;99882.53;;;-4.38;80.12
31483;BME280;18103;52.246;8.052;2022-12-16T00:26:28;99873.16;;;-4.41;80.28
31483;BME280;18103;52.246;8.052;2022-12-16T00:28:55;99873.31;;;-4.47;80.45
31483;BME280;18103;52.246;8.052;2022-12-16T00:31:21;99874.97;;;-4.44;79.92
31483;BME280;18103;52.246;8.052;2022-12-16T00:33:46;99875.97;;;-4.50;80.22
31483;BME280;18103;52.246;8.052;2022-12-16T00:36:12;99876.06;;;-4.55;80.55
31483;BME280;18103;52.246;8.052;2022-12-16T00:38:37;99873.06;;;-4.36;79.84
31483;BME280;18103;52.246;8.052;2022-12-16T00:41:02;99879.13;;;-4.39;80.16
31483;BME280;18103;52.246;8.052;2022-12-16T00:43:28;99880.16;;;-4.46;80.25
31483;BME280;18103;52.246;8.052;2022-12-16T00:45:53;99884.50;;;-4.48;80.54
31483;BME280;18103;52.246;8.052;2022-12-16T00:48:19;99874.44;;;-4.57;80.84
31483;BME280;18103;52.246;8.052;2022-12-16T00:50:49;99876.19;;;-4.59;80.53
31483;BME280;18103;52.246;8.052;2022-12-16T00:53:15;99875.34;;;-4.60;80.83
31483;BME280;18103;52.246;8.052;2022-12-16T00:55:41;99872.81;;;-4.61;80.61
31483;BME280;18103;52.246;8.052;2022-12-16T00:58:07;99874.59;;;-4.65;80.86
31483;BME280;18103;52.246;8.052;2022-12-16T01:00:33;99879.78;;;-4.67;81.10
31483;BME280;18103;52.246;8.052;2022-12-16T01:02:59;99875.66;;;-4.74;81.41
31483;BME280;18103;52.246;8.052;2022-12-16T01:05:24;99877.34;;;-4.71;81.18
31483;BME280;18103;52.246;8.052;2022-12-16T01:07:51;99872.84;;;-4.65;80.93
31483;BME280;18103;52.246;8.052;2022-12-16T01:10:17;99876.38;;;-4.67;81.54
31483;BME280;18103;52.246;8.052;2022-12-16T01:12:44;99872.91;;;-4.66;81.35
31483;BME280;18103;52.246;8.052;2022-12-16T01:15:10;99882.16;;;-4.59;80.68
31483;BME280;18103;52.246;8.052;2022-12-16T01:17:38;99877.13;;;-4.64;81.17
31483;BME280;18103;52.246;8.052;2022-12-16T01:20:04;99879.72;;;-4.64;81.02
31483;BME280;18103;52.246;8.052;2022-12-16T01:22:30;99884.81;;;-4.62;81.29
31483;BME280;18103;52.246;8.052;2022-12-16T01:24:57;99884.72;;;-4.57;81.61
31483;BME280;18103;52.246;8.052;2022-12-16T01:27:23;99890.72;;;-4.57;81.57
31483;BME280;18103;52.246;8.052;2022-12-16T01:29:48;99887.22;;;-4.54;81.58
31483;BME280;18103;52.246;8.052;2022-12-16T01:32:14;99888.94;;;-4.53;81.78
31483;BME280;18103;52.246;8.052;2022-12-16T01:34:41;99886.41;;;-4.56;82.12
31483;BME280;18103;52.246;8.052;2022-12-16T01:37:11;99892.41;;;-4.56;82.01
31483;BME280;18103;52.246;8.052;2022-12-16T01:39:37;99895.72;;;-4.51;82.00
31483;BME280;18103;52.246;8.052;2022-12-16T01:42:07;99899.88;;;-4.45;82.25
31483;BME280;18103;52.246;8.052;2022-12-16T01:44:35;99901.47;;;-4.41;82.09
31483;BME280;18103;52.246;8.052;2022-12-16T01:47:02;99898.13;;;-4.43;82.18
31483;BME280;18103;52.246;8.052;2022-12-16T01:52:24;99909.69;;;-4.25;81.86
31483;BME280;18103;52.246;8.052;2022-12-16T01:54:56;99912.31;;;-4.26;81.25
31483;BME280;18103;52.246;8.052;2022-12-16T01:57:29;99912.94;;;-4.17;81.07
31483;BME280;18103;52.246;8.052;2022-12-16T02:00:00;99910.06;;;-4.40;82.31
31483;BME280;18103;52.246;8.052;2022-12-16T02:02:26;99918.69;;;-4.41;82.10
31483;BME280;18103;52.246;8.052;2022-12-16T02:04:53;99917.78;;;-4.39;81.84
31483;BME280;18103;52.246;8.052;2022-12-16T02:07:37;99911.81;;;-4.42;82.41
31483;BME280;18103;52.246;8.052;2022-12-16T02:10:03;99916.03;;;-4.38;82.64
31483;BME280;18103;52.246;8.052;2022-12-16T02:13:04;99919.50;;;-4.41;82.42
31483;BME280;18103;52.246;8.052;2022-12-16T02:15:45;99922.09;;;-4.41;82.34
31483;BME280;18103;52.246;8.052;2022-12-16T02:26:40;99918.69;;;-4.41;81.60
31483;BME280;18103;52.246;8.052;2022-12-16T02:40:41;99915.97;;;-4.37;81.56
31483;BME280;18103;52.246;8.052;2022-12-16T02:42:46;99917.78;;;-4.39;81.54
31483;BME280;18103;52.246;8.052;2022-12-16T02:45:16;99924.63;;;-4.39;81.88
31483;BME280;18103;52.246;8.052;2022-12-16T02:47:44;99928.75;;;-4.31;81.43
31483;BME280;18103;52.246;8.052;2022-12-16T02:52:43;99935.47;;;-4.25;80.59
31483;BME280;18103;52.246;8.052;2022-12-16T02:55:08;99933.97;;;-4.34;80.59
31483;BME280;18103;52.246;8.052;2022-12-16T03:00:21;99946.41;;;-4.53;81.01
31483;BME280;18103;52.246;8.052;2022-12-16T03:03:13;99950.81;;;-4.58;81.00
31483;BME280;18103;52.246;8.052;2022-12-16T03:05:45;99949.13;;;-4.59;81.29
31483;BME280;18103;52.246;8.052;2022-12-16T03:08:19;99944.69;;;-4.52;80.37
31483;BME280;18103;52.246;8.052;2022-12-16T03:10:51;99947.34;;;-4.55;80.78
31483;BME280;18103;52.246;8.052;2022-12-16T03:13:20;99948.16;;;-4.53;80.13
31483;BME280;18103;52.246;8.052;2022-12-16T03:15:48;99950.84;;;-4.59;80.73
31483;BME280;18103;52.246;8.052;2022-12-16T03:18:17;99946.66;;;-4.64;80.88
31483;BME280;18103;52.246;8.052;2022-12-16T03:21:04;99941.50;;;-4.64;80.93
31483;BME280;18103;52.246;8.052;2022-12-16T03:23:50;99944.13;;;-4.65;81.12
31483;BME280;18103;52.246;8.052;2022-12-16T03:26:23;99941.53;;;-4.65;80.88
31483;BME280;18103;52.246;8.052;2022-12-16T03:28:54;99945.13;;;-4.72;81.47
31483;BME280;18103;52.246;8.052;2022-12-16T03:34:08;99940.09;;;-4.77;81.14
31483;BME280;18103;52.246;8.052;2022-12-16T03:36:38;99940.09;;;-4.77;81.22
31483;BME280;18103;52.246;8.052;2022-12-16T03:39:06;99946.25;;;-4.84;81.56
31483;BME280;18103;52.246;8.052;2022-12-16T03:41:33;99947.19;;;-4.87;81.38
31483;BME280;18103;52.246;8.052;2022-12-16T03:43:59;99951.47;;;-4.87;81.19
31483;BME280;18103;52.246;8.052;2022-12-16T03:46:25;99955.09;;;-4.96;81.46
31483;BME280;18103;52.246;8.052;2022-12-16T03:48:51;99954.97;;;-4.91;81.45
31483;BME280;18103;52.246;8.052;2022-12-16T03:51:18;99952.28;;;-4.85;81.12
31483;BME280;18103;52.246;8.052;2022-12-16T03:53:43;99954.94;;;-4.90;81.22
31483;BME280;18103;52.246;8.052;2022-12-16T03:56:09;99957.63;;;-4.94;81.38
31483;BME280;18103;52.246;8.052;2022-12-16T03:58:36;99957.69;;;-4.97;81.03
31483;BME280;18103;52.246;8.052;2022-12-16T04:01:04;99960.22;;;-4.96;80.73
31483;BME280;18103;52.246;8.052;2022-12-16T04:03:29;99957.56;;;-4.91;80.84
31483;BME280;18103;52.246;8.052;2022-12-16T04:05:58;99958.75;;;-5.06;81.15
31483;BME280;18103;52.246;8.052;2022-12-16T04:08:23;99965.66;;;-5.10;81.42
31483;BME280;18103;52.246;8.052;2022-12-16T04:10:52;99983.59;;;-5.07;81.17
31483;BME280;18103;52.246;8.052;2022-12-16T04:13:36;99975.69;;;-4.96;80.36
31483;BME280;18103;52.246;8.052;2022-12-16T04:16:20;99978.53;;;-5.10;81.30
31483;BME280;18103;52.246;8.052;2022-12-16T04:19:04;99976.19;;;-5.22;81.30
31483;BME280;18103;52.246;8.052;2022-12-16T04:21:49;99974.19;;;-5.06;81.16
31483;BME280;18103;52.246;8.052;2022-12-16T04:24:34;99975.22;;;-5.17;81.76
31483;BME280;18103;52.246;8.052;2022-12-16T04:26:59;99974.47;;;-5.20;81.66
31483;BME280;18103;52.246;8.052;2022-12-16T04:29:43;99978.00;;;-5.26;81.73
31483;BME280;18103;52.246;8.052;2022-12-16T04:32:28;99982.09;;;-5.17;81.30
31483;BME280;18103;52.246;8.052;2022-12-16T04:35:14;99992.53;;;-5.25;81.18
31483;BME280;18103;52.246;8.052;2022-12-16T04:37:58;99991.69;;;-5.25;80.75
31483;BME280;18103;52.246;8.052;2022-12-16T04:40:42;99995.38;;;-5.39;81.07
31483;BME280;18103;52.246;8.052;2022-12-16T04:43:26;99993.72;;;-5.43;81.57
31483;BME280;18103;52.246;8.052;2022-12-16T04:46:10;99997.09;;;-5.39;81.34
31483;BME280;18103;52.246;8.052;2022-12-16T04:48:54;99999.78;;;-5.45;81.68
31483;BME280;18103;52.246;8.052;2022-12-16T04:51:38;99998.81;;;-5.38;81.10
31483;BME280;18103;52.246;8.052;2022-12-16T04:54:22;100003.97;;;-5.40;80.87
31483;BME280;18103;52.246;8.052;2022-12-16T04:57:05;100003.16;;;-5.43;80.99
31483;BME280;18103;52.246;8.052;2022-12-16T04:59:49;100006.75;;;-5.51;81.41
31483;BME280;18103;52.246;8.052;2022-12-16T05:02:33;100011.00;;;-5.50;81.35
31483;BME280;18103;52.246;8.052;2022-12-16T05:05:17;100011.09;;;-5.56;81.58
31483;BME280;18103;52.246;8.052;2022-12-16T05:08:01;100014.53;;;-5.55;82.01
31483;BME280;18103;52.246;8.052;2022-12-16T05:10:45;100017.16;;;-5.57;81.81
31483;BME280;18103;52.246;8.052;2022-12-16T05:13:29;100014.56;;;-5.57;81.78
31483;BME280;18103;52.246;8.052;2022-12-16T05:16:13;100021.47;;;-5.60;82.06
31483;BME280;18103;52.246;8.052;2022-12-16T05:18:56;100022.31;;;-5.60;81.97
31483;BME280;18103;52.246;8.052;2022-12-16T05:21:40;100022.22;;;-5.54;81.62
31483;BME280;18103;52.246;8.052;2022-12-16T05:24:24;100021.34;;;-5.54;81.38
31483;BME280;18103;52.246;8.052;2022-12-16T05:27:08;100029.72;;;-5.41;80.36
31483;BME280;18103;52.246;8.052;2022-12-16T05:29:52;100031.72;;;-5.59;81.24
31483;BME280;18103;52.246;8.052;2022-12-16T05:32:36;100032.75;;;-5.68;81.67
31483;BME280;18103;52.246;8.052;2022-12-16T05:35:40;100032.78;;;-5.69;81.65
31483;BME280;18103;52.246;8.052;2022-12-16T05:38:24;100035.44;;;-5.75;81.80
31483;BME280;18103;52.246;8.052;2022-12-16T05:41:08;100037.50;;;-5.46;80.90
31483;BME280;18103;52.246;8.052;2022-12-16T05:43:52;100041.09;;;-5.55;80.71
31483;BME280;18103;52.246;8.052;2022-12-16T05:46:36;100050.59;;;-5.60;81.05
31483;BME280;18103;52.246;8.052;2022-12-16T05:49:21;100049.94;;;-5.71;81.55
31483;BME280;18103;52.246;8.052;2022-12-16T05:52:04;100059.25;;;-5.65;81.02
31483;BME280;18103;52.246;8.052;2022-12-16T05:54:48;100054.22;;;-5.70;81.15
31483;BME280;18103;52.246;8.052;2022-12-16T05:57:32;100060.31;;;-5.77;81.48
31483;BME280;18103;52.246;8.052;2022-12-16T06:00:16;100059.47;;;-5.78;81.58
31483;BME280;18103;52.246;8.052;2022-12-16T06:03:00;100062.03;;;-5.78;81.14
31483;BME280;18103;52.246;8.052;2022-12-16T06:05:44;100062.97;;;-5.84;81.30
31483;BME280;18103;52.246;8.052;2022-12-16T06:08:28;100066.47;;;-5.86;81.69
31483;BME280;18103;52.246;8.052;2022-12-16T06:11:15;100064.66;;;-5.81;81.36
31483;BME280;18103;52.246;8.052;2022-12-16T06:13:58;100071.59;;;-5.88;81.20
31483;BME280;18103;52.246;8.052;2022-12-16T06:16:42;100070.88;;;-5.94;81.32
31483;BME280;18103;52.246;8.052;2022-12-16T06:19:27;100086.00;;;-5.76;80.78
31483;BME280;18103;52.246;8.052;2022-12-16T06:22:11;100088.38;;;-5.63;80.15
31483;BME280;18103;52.246;8.052;2022-12-16T06:24:55;100092.16;;;-5.88;80.90
31483;BME280;18103;52.246;8.052;2022-12-16T06:27:39;100081.94;;;-5.91;80.65
31483;BME280;18103;52.246;8.052;2022-12-16T06:30:25;100090.50;;;-5.92;81.17
31483;BME280;18103;52.246;8.052;2022-12-16T06:33:09;100098.41;;;-6.01;81.30
31483;BME280;18103;52.246;8.052;2022-12-16T06:35:53;100103.50;;;-5.98;81.31
31483;BME280;18103;52.246;8.052;2022-12-16T06:38:37;100100.97;;;-6.01;81.17
31483;BME280;18103;52.246;8.052;2022-12-16T06:41:21;100104.34;;;-5.99;81.46
31483;BME280;18103;52.246;8.052;2022-12-16T06:44:05;100113.78;;;-5.99;81.08
31483;BME280;18103;52.246;8.052;2022-12-16T06:46:49;100114.69;;;-6.02;81.20
31483;BME280;18103;52.246;8.052;2022-12-16T06:49:33;100121.50;;;-5.99;80.82
31483;BME280;18103;52.246;8.052;2022-12-16T06:52:17;100124.22;;;-6.10;80.92
31483;BME280;18103;52.246;8.052;2022-12-16T06:55:01;100126.84;;;-6.15;81.44
31483;BME280;18103;52.246;8.052;2022-12-16T06:57:45;100132.00;;;-6.16;81.23
31483;BME280;18103;52.246;8.052;2022-12-16T07:00:29;100129.41;;;-6.13;81.23
31483;BME280;18103;52.246;8.052;2022-12-16T07:03:13;100142.25;;;-6.15;81.42
31483;BME280;18103;52.246;8.052;2022-12-16T07:05:57;100141.41;;;-6.17;81.79
31483;BME280;18103;52.246;8.052;2022-12-16T07:08:41;100144.00;;;-6.15;81.73
31483;BME280;18103;52.246;8.052;2022-12-16T07:11:25;100144.81;;;-6.13;81.61
31483;BME280;18103;52.246;8.052;2022-12-16T07:14:09;100149.13;;;-6.17;81.63
31483;BME280;18103;52.246;8.052;2022-12-16T07:16:53;100155.97;;;-6.16;81.37
31483;BME280;18103;52.246;8.052;2022-12-16T07:19:37;100159.41;;;-6.19;81.74
31483;BME280;18103;52.246;8.052;2022-12-16T07:22:21;100164.53;;;-6.14;80.89
31483;BME280;18103;52.246;8.052;2022-12-16T07:25:05;100167.09;;;-6.17;81.19
31483;BME280;18103;52.246;8.052;2022-12-16T07:27:50;100172.25;;;-6.19;81.86
31483;BME280;18103;52.246;8.052;2022-12-16T07:30:34;100189.31;;;-6.10;81.75
31483;BME280;18103;52.246;8.052;2022-12-16T07:33:17;100187.53;;;-6.06;81.64
31483;BME280;18103;52.246;8.052;2022-12-16T07:36:01;100186.66;;;-6.05;82.37
31483;BME280;18103;52.246;8.052;2022-12-16T07:38:45;100186.53;;;-5.97;82.50
31483;BME280;18103;52.246;8.052;2022-12-16T07:41:30;100200.19;;;-5.94;82.19
31483;BME280;18103;52.246;8.052;2022-12-16T07:44:14;100196.66;;;-5.87;82.46
31483;BME280;18103;52.246;8.052;2022-12-16T07:46:58;100202.63;;;-5.83;81.84
31483;BME280;18103;52.246;8.052;2022-12-16T07:49:41;100216.25;;;-5.78;82.24
31483;BME280;18103;52.246;8.052;2022-12-16T07:52:26;100222.13;;;-5.70;82.27
31483;BME280;18103;52.246;8.052;2022-12-16T07:55:10;100225.59;;;-5.74;82.39
31483;BME280;18103;52.246;8.052;2022-12-16T07:57:54;100227.25;;;-5.67;82.47
31483;BME280;18103;52.246;8.052;2022-12-16T08:00:38;100237.38;;;-5.57;82.12
31483;BME280;18103;52.246;8.052;2022-12-16T08:03:22;100232.28;;;-5.59;81.95
31483;BME280;18103;52.246;8.052;2022-12-16T08:06:06;100238.19;;;-5.52;82.18
31483;BME280;18103;52.246;8.052;2022-12-16T08:08:50;100244.16;;;-5.52;82.19
31483;BME280;18103;52.246;8.052;2022-12-16T08:11:34;100247.47;;;-5.42;81.74
31483;BME280;18103;52.246;8.052;2022-12-16T08:14:18;100248.03;;;-5.21;81.87
31483;BME280;18103;52.246;8.052;2022-12-16T08:17:02;100250.53;;;-5.18;81.64
31483;BME280;18103;52.246;8.052;2022-12-16T08:19:46;100257.25;;;-5.06;81.46
31483;BME280;18103;52.246;8.052;2022-12-16T08:22:30;100262.19;;;-4.95;81.74
31483;BME280;18103;52.246;8.052;2022-12-16T08:25:14;100260.47;;;-4.95;81.65
31483;BME280;18103;52.246;8.052;2022-12-16T08:27:58;100268.06;;;-4.87;81.41
31483;BME280;18103;52.246;8.052;2022-12-16T08:30:49;100271.34;;;-4.77;81.00
31483;BME280;18103;52.246;8.052;2022-12-16T08:33:33;100274.78;;;-4.77;81.45
31483;BME280;18103;52.246;8.052;2022-12-16T08:36:17;100272.03;;;-4.68;81.27
31483;BME280;18103;52.246;8.052;2022-12-16T08:39:02;100288.28;;;-4.64;80.97
31483;BME280;18103;52.246;8.052;2022-12-16T08:41:46;100279.59;;;-4.57;80.80
31483;BME280;18103;52.246;8.052;2022-12-16T08:44:30;100285.34;;;-4.42;81.00
31483;BME280;18103;52.246;8.052;2022-12-16T08:47:14;100296.41;;;-4.37;81.06
31483;BME280;18103;52.246;8.052;2022-12-16T08:49:58;100306.50;;;-4.25;80.81
31483;BME280;18103;52.246;8.052;2022-12-16T08:52:42;100307.06;;;-4.09;81.02
31483;BME280;18103;52.246;8.052;2022-12-16T08:55:26;100311.84;;;-3.90;81.25
31483;BME280;18103;52.246;8.052;2022-12-16T09:01:04;100321.41;;;-3.52;80.87
31483;BME280;18103;52.246;8.052;2022-12-16T09:03:48;100316.53;;;-3.25;80.41
31483;BME280;18103;52.246;8.052;2022-12-16T09:06:32;100316.28;;;-3.13;81.11
31483;BME280;18103;52.246;8.052;2022-12-16T09:09:16;100314.88;;;-2.90;80.87
31483;BME280;18103;52.246;8.052;2022-12-16T09:12:01;100322.19;;;-2.70;80.88
31483;BME280;18103;52.246;8.052;2022-12-16T09:14:45;100326.00;;;-2.50;80.75
31483;BME280;18103;52.246;8.052;2022-12-16T09:17:29;100329.22;;;-2.41;80.93
31483;BME280;18103;52.246;8.052;2022-12-16T09:20:15;100325.28;;;-2.21;80.83
31483;BME280;18103;52.246;8.052;2022-12-16T09:23:01;100333.53;;;-2.08;81.31
31483;BME280;18103;52.246;8.052;2022-12-16T09:25:45;100326.38;;;-1.98;81.83
31483;BME280;18103;52.246;8.052;2022-12-16T09:28:29;100330.88;;;-1.74;80.60
31483;BME280;18103;52.246;8.052;2022-12-16T09:31:13;100343.47;;;-1.61;80.63
31483;BME280;18103;52.246;8.052;2022-12-16T09:33:57;100343.72;;;-1.39;80.14
31483;BME280;18103;52.246;8.052;2022-12-16T09:36:41;100334.75;;;-1.27;80.16
31483;BME280;18103;52.246;8.052;2022-12-16T09:39:25;100338.69;;;-1.15;80.37
31483;BME280;18103;52.246;8.052;2022-12-16T09:45:17;100344.59;;;-0.82;80.09
31483;BME280;18103;52.246;8.052;2022-12-16T09:48:11;100352.09;;;-0.73;80.37
31483;BME280;18103;52.246;8.052;2022-12-16T09:51:02;100347.34;;;-0.60;80.04
31483;BME280;18103;52.246;8.052;2022-12-16T09:53:49;100351.53;;;-0.56;80.02
31483;BME280;18103;52.246;8.052;2022-12-16T09:56:35;100356.41;;;-0.46;79.98
31483;BME280;18103;52.246;8.052;2022-12-16T09:59:33;100360.25;;;-0.31;79.31
31483;BME280;18103;52.246;8.052;2022-12-16T10:02:18;100361.09;;;-0.31;79.48
31483;BME280;18103;52.246;8.052;2022-12-16T10:05:11;100370.50;;;-0.28;79.92
31483;BME280;18103;52.246;8.052;2022-12-16T10:11:31;100367.56;;;-0.18;80.01
31483;BME280;18103;52.246;8.052;2022-12-16T10:14:29;100367.72;;;-0.22;80.55
31483;BME280;18103;52.246;8.052;2022-12-16T10:17:24;100373.06;;;-0.27;80.13
31483;BME280;18103;52.246;8.052;2022-12-16T10:20:39;100374.75;;;-0.26;80.60
31483;BME280;18103;52.246;8.052;2022-12-16T10:29:29;100374.84;;;-0.02;79.42
31483;BME280;18103;52.246;8.052;2022-12-16T10:32:39;100377.06;;;0.09;79.86
31483;BME280;18103;52.246;8.052;2022-12-16T10:35:28;100388.03;;;0.17;78.41
31483;BME280;18103;52.246;8.052;2022-12-16T10:38:21;100381.78;;;0.23;78.72
31483;BME280;18103;52.246;8.052;2022-12-16T10:41:07;100383.19;;;0.31;78.49
31483;BME280;18103;52.246;8.052;2022-12-16T10:43:53;100378.53;;;0.16;77.68
31483;BME280;18103;52.246;8.052;2022-12-16T10:46:38;100377.88;;;0.34;78.67
31483;BME280;18103;52.246;8.052;2022-12-16T10:49:22;100377.50;;;0.45;79.80
31483;BME280;18103;52.246;8.052;2022-12-16T10:52:10;100379.09;;;0.49;79.58
31483;BME280;18103;52.246;8.052;2022-12-16T10:58:10;100377.78;;;0.85;79.08
31483;BME280;18103;52.246;8.052;2022-12-16T11:00:58;100387.91;;;0.93;77.79
31483;BME280;18103;52.246;8.052;2022-12-16T11:03:42;100394.44;;;1.03;77.76
31483;BME280;18103;52.246;8.052;2022-12-16T11:06:39;100397.91;;;1.04;77.25
31483;BME280;18103;52.246;8.052;2022-12-16T11:09:29;100389.00;;;1.09;77.77
31483;BME280;18103;52.246;8.052;2022-12-16T11:12:20;100389.31;;;1.24;77.07
31483;BME280;18103;52.246;8.052;2022-12-16T11:15:26;100379.16;;;1.40;78.49
31483;BME280;18103;52.246;8.052;2022-12-16T11:18:16;100387.38;;;1.51;77.47
31483;BME280;18103;52.246;8.052;2022-12-16T11:21:11;100377.97;;;1.69;77.26
31483;BME280;18103;52.246;8.052;2022-12-16T11:24:16;100384.31;;;1.84;77.21
31483;BME280;18103;52.246;8.052;2022-12-16T11:27:02;100389.91;;;1.95;77.06
31483;BME280;18103;52.246;8.052;2022-12-16T11:32:34;100388.28;;;2.13;77.38
31483;BME280;18103;52.246;8.052;2022-12-16T11:35:23;100391.19;;;2.26;78.23
31483;BME280;18103;52.246;8.052;2022-12-16T11:38:17;100382.06;;;2.36;75.77
31483;BME280;18103;52.246;8.052;2022-12-16T11:41:03;100384.63;;;2.38;76.14
31483;BME280;18103;52.246;8.052;2022-12-16T11:43:49;100385.50;;;2.58;76.35
31483;BME280;18103;52.246;8.052;2022-12-16T11:46:34;100396.09;;;2.53;73.97
31483;BME280;18103;52.246;8.052;2022-12-16T11:49:26;100387.78;;;2.45;72.34
31483;BME280;18103;52.246;8.052;2022-12-16T11:52:15;100383.59;;;2.42;72.10
31483;BME280;18103;52.246;8.052;2022-12-16T11:55:20;100388.78;;;2.42;72.25
31483;BME280;18103;52.246;8.052;2022-12-16T11:58:27;100383.50;;;2.44;72.65
31483;BME280;18103;52.246;8.052;2022-12-16T12:01:23;100389.78;;;2.59;72.04
31483;BME280;18103;52.246;8.052;2022-12-16T12:04:10;100384.78;;;2.54;72.09
31483;BME280;18103;52.246;8.052;2022-12-16T12:10:18;100398.25;;;2.64;71.17
31483;BME280;18103;52.246;8.052;2022-12-16T12:19:22;100404.94;;;2.69;72.07
31483;BME280;18103;52.246;8.052;2022-12-16T12:22:35;100403.31;;;2.67;72.14
31483;BME280;18103;52.246;8.052;2022-12-16T12:25:42;100404.53;;;2.79;70.77
31483;BME280;18103;52.246;8.052;2022-12-16T12:28:34;100404.00;;;2.91;69.83
31483;BME280;18103;52.246;8.052;2022-12-16T12:31:42;100414.28;;;2.94;70.48
31483;BME280;18103;52.246;8.052;2022-12-16T12:34:52;100413.81;;;3.03;70.68
31483;BME280;18103;52.246;8.052;2022-12-16T12:38:02;100412.69;;;3.09;69.48
31483;BME280;18103;52.246;8.052;2022-12-16T12:40:55;100409.34;;;3.07;71.96
31483;BME280;18103;52.246;8.052;2022-12-16T12:44:03;100412.44;;;3.15;69.87
31483;BME280;18103;52.246;8.052;2022-12-16T12:47:07;100410.59;;;3.17;71.56
31483;BME280;18103;52.246;8.052;2022-12-16T12:55:40;100414.25;;;3.32;70.67
31483;BME280;18103;52.246;8.052;2022-12-16T12:58:27;100419.38;;;3.34;71.99
31483;BME280;18103;52.246;8.052;2022-12-16T13:01:16;100415.44;;;3.25;69.61
31483;BME280;18103;52.246;8.052;2022-12-16T13:04:12;100411.72;;;3.31;71.13
31483;BME280;18103;52.246;8.052;2022-12-16T13:06:59;100413.59;;;3.27;70.90
31483;BME280;18103;52.246;8.052;2022-12-16T13:09:43;100414.81;;;3.39;71.03
31483;BME280;18103;52.246;8.052;2022-12-16T13:12:32;100412.75;;;3.46;70.46
31483;BME280;18103;52.246;8.052;2022-12-16T13:15:38;100410.06;;;3.47;70.81
31483;BME280;18103;52.246;8.052;2022-12-16T13:18:29;100415.28;;;3.47;70.93
31483;BME280;18103;52.246;8.052;2022-12-16T13:21:51;100411.63;;;3.51;69.16
31483;BME280;18103;52.246;8.052;2022-12-16T13:24:42;100413.09;;;3.57;69.93
31483;BME280;18103;52.246;8.052;2022-12-16T13:27:29;100414.34;;;3.48;68.19
31483;BME280;18103;52.246;8.052;2022-12-16T13:30:22;100423.88;;;3.49;68.31
31483;BME280;18103;52.246;8.052;2022-12-16T13:33:21;100428.34;;;3.65;68.27
31483;BME280;18103;52.246;8.052;2022-12-16T13:36:08;100429.06;;;3.68;67.95
31483;BME280;18103;52.246;8.052;2022-12-16T13:38:54;100436.66;;;3.55;68.94
31483;BME280;18103;52.246;8.052;2022-12-16T13:50:42;100447.91;;;3.75;73.63
31483;BME280;18103;52.246;8.052;2022-12-16T13:53:30;100450.72;;;3.70;71.84
31483;BME280;18103;52.246;8.052;2022-12-16T13:56:19;100452.75;;;3.64;73.37
31483;BME280;18103;52.246;8.052;2022-12-16T13:59:15;100461.03;;;3.54;70.58
31483;BME280;18103;52.246;8.052;2022-12-16T14:02:26;100468.81;;;3.37;70.16
31483;BME280;18103;52.246;8.052;2022-12-16T14:05:16;100474.47;;;3.28;70.05
31483;BME280;18103;52.246;8.052;2022-12-16T14:08:04;100473.41;;;3.13;70.83
31483;BME280;18103;52.246;8.052;2022-12-16T14:10:57;100480.09;;;3.18;70.74
31483;BME280;18103;52.246;8.052;2022-12-16T14:13:57;100484.31;;;3.02;70.87
31483;BME280;18103;52.246;8.052;2022-12-16T14:16:50;100493.91;;;3.20;72.00
31483;BME280;18103;52.246;8.052;2022-12-16T14:20:21;100492.19;;;3.00;71.78
31483;BME280;18103;52.246;8.052;2022-12-16T14:26:02;100501.16;;;2.74;71.52
31483;BME280;18103;52.246;8.052;2022-12-16T14:28:46;100512.13;;;2.62;71.13
31483;BME280;18103;52.246;8.052;2022-12-16T14:31:42;100512.66;;;2.49;71.33
31483;BME280;18103;52.246;8.052;2022-12-16T14:34:34;100511.28;;;2.61;70.69
31483;BME280;18103;52.246;8.052;2022-12-16T14:40:23;100527.91;;;2.36;72.73
31483;BME280;18103;52.246;8.052;2022-12-16T14:43:21;100534.06;;;2.35;72.33
31483;BME280;18103;52.246;8.052;2022-12-16T14:46:27;100532.94;;;2.20;72.74
31483;BME280;18103;52.246;8.052;2022-12-16T14:52:23;100543.69;;;2.11;72.95
31483;BME280;18103;52.246;8.052;2022-12-16T14:58:21;100556.84;;;1.64;73.38
31483;BME280;18103;52.246;8.052;2022-12-16T15:01:18;100565.72;;;1.58;74.45
31483;BME280;18103;52.246;8.052;2022-12-16T15:04:08;100564.09;;;1.56;73.69
31483;BME280;18103;52.246;8.052;2022-12-16T15:06:57;100571.47;;;1.43;74.97
31483;BME280;18103;52.246;8.052;2022-12-16T15:09:47;100576.84;;;1.38;74.60
31483;BME280;18103;52.246;8.052;2022-12-16T15:12:38;100583.88;;;1.36;74.74
31483;BME280;18103;52.246;8.052;2022-12-16T15:15:35;100583.06;;;1.34;73.96
31483;BME280;18103;52.246;8.052;2022-12-16T15:18:33;100588.72;;;1.22;74.04
31483;BME280;18103;52.246;8.052;2022-12-16T15:21:18;100595.94;;;1.13;73.95
31483;BME280;18103;52.246;8.052;2022-12-16T15:24:15;100606.44;;;1.10;74.09
31483;BME280;18103;52.246;8.052;2022-12-16T15:27:22;100605.53;;;1.11;74.23
31483;BME280;18103;52.246;8.052;2022-12-16T15:30:43;100606.84;;;0.98;74.38
31483;BME280;18103;52.246;8.052;2022-12-16T15:33:29;100607.34;;;0.84;74.52
31483;BME280;18103;52.246;8.052;2022-12-16T15:41:59;100628.97;;;0.84;74.44
31483;BME280;18103;52.246;8.052;2022-12-16T15:44:49;100632.31;;;0.61;74.95
31483;BME280;18103;52.246;8.052;2022-12-16T15:47:36;100636.66;;;0.34;75.92
31483;BME280;18103;52.246;8.052;2022-12-16T15:50:26;100639.06;;;0.40;76.01
31483;BME280;18103;52.246;8.052;2022-12-16T15:53:32;100638.31;;;0.37;76.23
31483;BME280;18103;52.246;8.052;2022-12-16T15:56:24;100643.38;;;0.41;75.72